Circleville, Utah
Current Conditions -  °F | °C
As of 7:53 AM on Saturday 20 Dec 2014 (Local Time) from KBCE Reporting Station
Clear Clear  
Wind Chill:   Ceiling: Unl
Heat Index: 14°   Visibility: 10mi
Dew Point: 10°   Wind: 8mph
Humidity: 84%   Direction: 270°W
Pressure: 30.15"   Gusts: NA
Location:  38.17°N, 112.27°W
Report Text: KBCE 201453Z AUTO 27007KT 10SM CLR M10/M12 A3015 RMK AO2 SLP236 I3000 T11001122 53001
Loading
Personal Weather Stations






























Interactive Weather Map New forecast layout! Learn more

10-Day Weather Forecast

Advertisements
Track Severe Weather on mobile